createdAt,value
2023-03-26T00:00:10.513Z,20.10
2023-03-26T00:03:05.245Z,20.10
2023-03-26T00:06:08.861Z,20.10
2023-03-26T00:09:03.080Z,20.10
2023-03-26T00:11:57.913Z,20.10
2023-03-26T00:14:52.916Z,20.10
2023-03-26T00:17:51.191Z,20.20
2023-03-26T00:20:46.657Z,20.10
2023-03-26T00:23:41.223Z,20.10
2023-03-26T00:26:36.905Z,20.10
2023-03-26T00:29:34.562Z,20.10
2023-03-26T00:32:30.904Z,20.10
2023-03-26T00:35:25.306Z,20.20
2023-03-26T00:38:19.468Z,20.20
2023-03-26T00:41:27.138Z,20.20
2023-03-26T00:44:22.020Z,20.30
2023-03-26T00:47:16.289Z,20.40
2023-03-26T00:50:16.553Z,20.40
2023-03-26T00:53:13.334Z,20.40
2023-03-26T00:56:08.836Z,20.50
2023-03-26T00:59:03.289Z,20.40
2023-03-26T01:01:59.527Z,20.50
2023-03-26T01:05:03.981Z,20.40
2023-03-26T01:07:58.563Z,20.40
2023-03-26T01:10:54.333Z,20.50
2023-03-26T01:14:22.776Z,20.50
2023-03-26T01:17:17.596Z,20.70
2023-03-26T01:20:31.723Z,20.70
2023-03-26T01:23:31.848Z,20.80
2023-03-26T01:26:54.036Z,20.90
2023-03-26T01:30:14.355Z,20.90
2023-03-26T01:33:35.079Z,21.00
2023-03-26T01:37:05.046Z,20.90
2023-03-26T01:40:08.370Z,20.90
2023-03-26T01:43:27.673Z,21.00
2023-03-26T01:46:25.355Z,21.10
2023-03-26T01:49:20.995Z,21.20
2023-03-26T01:52:23.572Z,21.30
2023-03-26T01:55:18.502Z,21.30
2023-03-26T01:58:21.014Z,21.40
2023-03-26T02:01:46.426Z,21.50
2023-03-26T02:05:03.321Z,21.60
2023-03-26T02:08:06.865Z,21.60
2023-03-26T02:11:05.541Z,21.60
2023-03-26T02:14:00.827Z,21.70
2023-03-26T02:16:55.143Z,21.60
2023-03-26T02:19:49.385Z,21.70
2023-03-26T02:22:46.980Z,21.70
2023-03-26T02:25:43.170Z,21.80
2023-03-26T02:28:37.471Z,21.80
2023-03-26T02:31:31.838Z,21.90
2023-03-26T02:34:26.077Z,22.00
2023-03-26T02:37:20.422Z,22.10
2023-03-26T02:40:15.307Z,22.20
2023-03-26T02:43:09.940Z,22.20
2023-03-26T02:46:04.285Z,22.20
2023-03-26T02:48:58.482Z,22.30
2023-03-26T02:51:57.436Z,22.30
2023-03-26T02:54:51.816Z,22.30
2023-03-26T02:57:46.000Z,22.30
2023-03-26T03:00:40.457Z,22.30
2023-03-26T03:03:35.796Z,22.30
2023-03-26T03:06:32.256Z,22.40
2023-03-26T03:09:26.985Z,22.40
2023-03-26T03:12:21.224Z,22.50
2023-03-26T03:15:15.563Z,22.50
2023-03-26T03:18:09.876Z,22.40
2023-03-26T03:21:04.559Z,22.50
2023-03-26T03:23:59.997Z,22.50
2023-03-26T03:26:58.002Z,22.60
2023-03-26T03:29:54.996Z,22.60
2023-03-26T03:32:49.556Z,22.70
2023-03-26T03:35:44.159Z,22.70
2023-03-26T03:38:43.167Z,22.70
2023-03-26T03:41:37.388Z,22.70
2023-03-26T03:44:31.933Z,22.60
2023-03-26T03:47:26.193Z,22.50
2023-03-26T03:50:20.473Z,22.50
2023-03-26T03:53:17.211Z,22.40
2023-03-26T03:56:11.647Z,22.40
2023-03-26T03:59:06.280Z,22.40
2023-03-26T04:02:00.505Z,22.40
2023-03-26T04:04:55.569Z,22.50
2023-03-26T04:07:49.931Z,22.50
2023-03-26T04:10:45.246Z,22.50
2023-03-26T04:13:39.711Z,22.50
2023-03-26T04:16:34.240Z,22.40
2023-03-26T04:19:28.760Z,22.40
2023-03-26T04:22:23.623Z,22.50
2023-03-26T04:25:18.465Z,22.50
2023-03-26T04:28:23.847Z,22.50
2023-03-26T04:31:30.335Z,22.60
2023-03-26T04:34:26.450Z,22.60
2023-03-26T04:37:45.570Z,22.50
2023-03-26T04:40:40.376Z,22.50
2023-03-26T04:43:37.888Z,22.50
2023-03-26T04:46:34.734Z,22.50
2023-03-26T04:49:29.000Z,22.50
2023-03-26T04:52:23.595Z,22.50
2023-03-26T04:55:32.950Z,22.50
2023-03-26T04:58:34.098Z,22.50
2023-03-26T05:01:32.048Z,22.50
2023-03-26T05:04:27.841Z,22.40
2023-03-26T05:07:25.007Z,22.40
2023-03-26T05:10:21.854Z,22.30
2023-03-26T05:13:16.071Z,22.20
2023-03-26T05:16:11.275Z,22.10
2023-03-26T05:19:05.624Z,22.10
2023-03-26T05:21:59.950Z,22.10
2023-03-26T05:24:54.078Z,22.10
2023-03-26T05:27:49.028Z,22.20
2023-03-26T05:30:45.856Z,22.20
2023-03-26T05:33:40.881Z,22.20
2023-03-26T05:36:35.188Z,22.30
2023-03-26T05:39:31.055Z,22.30
2023-03-26T05:42:25.421Z,22.40
2023-03-26T05:45:20.163Z,22.40
2023-03-26T05:48:14.340Z,22.40
2023-03-26T05:51:09.298Z,22.30
2023-03-26T05:54:03.500Z,22.30
2023-03-26T05:56:58.639Z,22.30
2023-03-26T05:59:52.823Z,22.40
2023-03-26T06:02:48.342Z,22.30
2023-03-26T06:05:44.307Z,22.30
2023-03-26T06:08:38.607Z,22.30
2023-03-26T06:11:33.860Z,22.30
2023-03-26T06:14:28.328Z,22.30
2023-03-26T06:17:22.569Z,22.30
2023-03-26T06:20:17.716Z,22.30
2023-03-26T06:23:11.997Z,22.30
2023-03-26T06:26:06.417Z,22.30
2023-03-26T06:29:00.891Z,22.20
2023-03-26T06:31:55.745Z,22.20
2023-03-26T06:34:51.244Z,22.20
2023-03-26T06:37:45.544Z,22.20
2023-03-26T06:40:40.180Z,22.20
2023-03-26T06:43:34.987Z,22.20
2023-03-26T06:46:29.574Z,22.20
2023-03-26T06:49:23.872Z,22.20
2023-03-26T06:52:18.166Z,22.10
2023-03-26T06:55:13.049Z,22.10
2023-03-26T06:58:07.325Z,22.00
2023-03-26T07:01:01.809Z,22.00
2023-03-26T07:03:56.044Z,22.00
2023-03-26T07:06:54.440Z,22.00
2023-03-26T07:09:49.311Z,21.90
2023-03-26T07:12:44.035Z,21.90
2023-03-26T07:15:38.439Z,21.90
2023-03-26T07:18:32.667Z,21.80
2023-03-26T07:21:27.447Z,21.70
2023-03-26T07:24:22.044Z,21.50
2023-03-26T07:27:19.263Z,21.40
2023-03-26T07:30:25.658Z,21.40
2023-03-26T07:33:41.273Z,21.40
2023-03-26T07:36:58.305Z,21.50
2023-03-26T07:40:11.577Z,21.50
2023-03-26T07:43:25.703Z,21.50
2023-03-26T07:46:25.272Z,21.50
2023-03-26T07:49:21.523Z,21.50
2023-03-26T07:52:15.903Z,21.50
2023-03-26T07:55:14.049Z,21.50
2023-03-26T07:58:29.661Z,21.50
2023-03-26T08:01:58.164Z,21.50
2023-03-26T08:05:20.049Z,21.50
2023-03-26T08:08:42.840Z,21.40
2023-03-26T08:12:00.377Z,21.40
2023-03-26T08:15:13.527Z,21.40
2023-03-26T08:18:28.545Z,21.40
2023-03-26T08:21:30.294Z,21.40
2023-03-26T08:24:37.765Z,21.40
2023-03-26T08:27:39.308Z,21.40
2023-03-26T08:30:34.048Z,21.30
2023-03-26T08:33:30.002Z,21.30
2023-03-26T08:36:24.180Z,21.30
2023-03-26T08:39:18.360Z,21.30
2023-03-26T08:42:27.887Z,21.30
2023-03-26T08:45:52.614Z,21.30
2023-03-26T08:49:11.081Z,21.30
2023-03-26T08:52:11.627Z,21.30
2023-03-26T08:55:33.393Z,21.20
2023-03-26T08:58:52.089Z,21.20
2023-03-26T09:01:49.162Z,21.20
2023-03-26T09:05:08.295Z,21.20
2023-03-26T09:08:11.633Z,21.20
2023-03-26T09:11:42.612Z,21.20
2023-03-26T09:15:06.154Z,21.10
2023-03-26T09:18:18.485Z,21.00
2023-03-26T09:21:15.548Z,20.80
2023-03-26T09:24:25.524Z,20.80
2023-03-26T09:27:44.235Z,20.60
2023-03-26T09:30:45.164Z,20.50
2023-03-26T09:33:53.357Z,20.40
2023-03-26T09:36:58.559Z,20.30
2023-03-26T09:40:19.862Z,20.30
2023-03-26T09:43:23.217Z,20.30
2023-03-26T09:46:25.585Z,20.30
2023-03-26T09:49:40.849Z,20.20
2023-03-26T09:52:58.359Z,20.30
2023-03-26T09:56:11.789Z,20.30
2023-03-26T09:59:05.949Z,20.30
2023-03-26T10:02:03.122Z,20.30
2023-03-26T10:05:25.494Z,20.30
2023-03-26T10:08:32.352Z,20.40
2023-03-26T10:11:53.016Z,20.50
2023-03-26T10:15:20.710Z,20.60
2023-03-26T10:18:27.445Z,20.70
2023-03-26T10:21:51.769Z,20.70
2023-03-26T10:25:13.941Z,20.70
2023-03-26T10:28:26.872Z,20.70
2023-03-26T10:31:45.178Z,20.70
2023-03-26T10:34:57.213Z,20.70
2023-03-26T10:37:57.550Z,20.80
2023-03-26T10:41:11.836Z,20.70
2023-03-26T10:44:15.070Z,20.70
2023-03-26T10:47:17.997Z,20.80
2023-03-26T10:50:30.640Z,20.80
2023-03-26T10:53:32.500Z,20.90
2023-03-26T10:56:47.832Z,20.90
2023-03-26T10:59:42.235Z,21.00
2023-03-26T11:02:55.848Z,21.00
2023-03-26T11:06:05.271Z,21.10
2023-03-26T11:09:25.847Z,21.20
2023-03-26T11:12:26.991Z,21.20
2023-03-26T11:16:05.843Z,21.30
2023-03-26T11:19:46.190Z,21.30
2023-03-26T11:23:04.884Z,21.40
2023-03-26T11:26:11.474Z,21.40
2023-03-26T11:29:31.315Z,21.50
2023-03-26T11:32:37.353Z,21.50
2023-03-26T11:35:40.955Z,21.50
2023-03-26T11:38:48.749Z,21.50
2023-03-26T11:41:43.065Z,21.50
2023-03-26T11:44:42.056Z,21.50
2023-03-26T11:47:44.240Z,21.50
2023-03-26T11:50:45.566Z,21.30
2023-03-26T11:53:40.908Z,21.30
2023-03-26T11:56:35.041Z,21.30
2023-03-26T11:59:55.390Z,21.20
2023-03-26T12:02:50.988Z,21.20
2023-03-26T12:05:59.429Z,21.20
2023-03-26T12:08:53.720Z,21.20
2023-03-26T12:11:50.532Z,21.30
2023-03-26T12:14:45.401Z,21.30
2023-03-26T12:17:41.422Z,21.30
2023-03-26T12:20:38.191Z,21.20
2023-03-26T12:23:42.990Z,21.20
2023-03-26T12:26:38.818Z,21.10
2023-03-26T12:29:35.565Z,21.00
2023-03-26T12:32:46.207Z,20.90
2023-03-26T12:35:42.054Z,20.90
2023-03-26T12:38:38.402Z,20.80
2023-03-26T12:44:42.292Z,20.90
2023-03-26T12:45:00.517Z,20.90
2023-03-26T12:48:03.506Z,20.90
2023-03-26T12:51:06.294Z,20.90
2023-03-26T12:54:16.278Z,21.00
2023-03-26T12:57:25.902Z,21.00
2023-03-26T13:00:24.054Z,21.10
2023-03-26T13:03:31.958Z,21.10
2023-03-26T13:06:31.562Z,21.20
2023-03-26T13:09:45.655Z,21.20
2023-03-26T13:12:44.040Z,21.10
2023-03-26T13:15:49.633Z,21.10
2023-03-26T13:19:11.115Z,21.20
2023-03-26T13:22:33.104Z,21.20
2023-03-26T13:25:45.774Z,21.20
2023-03-26T13:29:12.426Z,21.20
2023-03-26T13:32:22.085Z,21.30
2023-03-26T13:35:38.710Z,21.40
2023-03-26T13:39:08.704Z,21.40
2023-03-26T13:42:41.813Z,21.40
2023-03-26T13:46:07.716Z,21.40
2023-03-26T13:49:08.111Z,21.40
2023-03-26T13:52:15.445Z,21.50
2023-03-26T13:55:38.687Z,21.50
2023-03-26T13:59:08.945Z,21.50
2023-03-26T14:02:12.275Z,21.40
2023-03-26T14:05:13.556Z,21.50
2023-03-26T14:08:32.819Z,21.50
2023-03-26T14:11:36.153Z,21.50
2023-03-26T14:14:39.373Z,21.60
2023-03-26T14:17:59.104Z,21.60
2023-03-26T14:21:27.811Z,21.70
2023-03-26T14:25:00.398Z,21.70
2023-03-26T14:28:12.878Z,21.80
2023-03-26T14:31:30.508Z,21.80
2023-03-26T14:34:31.372Z,21.90
2023-03-26T14:37:59.749Z,21.90
2023-03-26T14:41:03.834Z,22.00
2023-03-26T14:44:48.202Z,22.10
2023-03-26T14:48:01.020Z,22.10
2023-03-26T14:50:55.888Z,22.20
2023-03-26T14:53:57.032Z,22.20
2023-03-26T14:57:14.106Z,22.30
2023-03-26T15:00:29.904Z,22.30
2023-03-26T15:03:27.172Z,22.30
2023-03-26T15:06:38.275Z,22.40
2023-03-26T15:10:05.991Z,22.50
2023-03-26T15:13:06.524Z,22.60
2023-03-26T15:16:10.223Z,22.60
2023-03-26T15:19:04.362Z,22.60
2023-03-26T15:22:26.187Z,22.70
2023-03-26T15:25:38.944Z,22.70
2023-03-26T15:28:48.431Z,22.80
2023-03-26T15:32:01.325Z,22.80
2023-03-26T15:35:21.976Z,22.80
2023-03-26T15:38:37.418Z,22.80
2023-03-26T15:41:54.730Z,23.00
2023-03-26T15:45:26.029Z,23.00
2023-03-26T15:48:29.282Z,23.10
2023-03-26T15:51:46.809Z,23.10
2023-03-26T15:55:30.140Z,23.20
2023-03-26T15:58:28.084Z,23.20
2023-03-26T16:02:20.607Z,23.30
2023-03-26T16:05:41.886Z,23.30
2023-03-26T16:08:54.289Z,23.40
2023-03-26T16:11:56.028Z,23.50
2023-03-26T16:15:10.652Z,23.60
2023-03-26T16:18:16.779Z,23.60
2023-03-26T16:21:32.930Z,23.70
2023-03-26T16:24:34.487Z,23.60
2023-03-26T16:27:35.177Z,23.60
2023-03-26T16:30:34.859Z,23.60
2023-03-26T16:33:40.104Z,23.60
2023-03-26T16:36:44.916Z,23.60
2023-03-26T16:39:45.455Z,23.60
2023-03-26T16:42:51.209Z,23.60
2023-03-26T16:46:16.693Z,23.60
2023-03-26T16:49:13.955Z,23.60
2023-03-26T16:52:08.725Z,23.60
2023-03-26T16:55:27.725Z,23.60
2023-03-26T16:58:32.729Z,23.60
2023-03-26T17:01:28.448Z,23.50
2023-03-26T17:04:26.096Z,23.30
2023-03-26T17:07:42.818Z,23.20
2023-03-26T17:11:01.954Z,23.00
2023-03-26T17:14:24.123Z,22.80
2023-03-26T17:17:37.986Z,22.60
2023-03-26T17:21:00.907Z,22.50
2023-03-26T17:24:18.668Z,22.40
2023-03-26T17:27:37.493Z,22.50
2023-03-26T17:30:46.800Z,22.50
2023-03-26T17:33:41.412Z,22.40
2023-03-26T17:36:47.082Z,22.40
2023-03-26T17:39:41.241Z,22.40
2023-03-26T17:42:38.657Z,22.30
2023-03-26T17:45:36.798Z,22.20
2023-03-26T17:48:36.655Z,22.20
2023-03-26T17:51:51.875Z,22.20
2023-03-26T17:54:56.596Z,22.10
2023-03-26T17:57:58.685Z,22.10
2023-03-26T18:00:59.951Z,22.10
2023-03-26T18:03:58.988Z,22.00
2023-03-26T18:07:30.708Z,21.90
2023-03-26T18:11:01.022Z,21.90
2023-03-26T18:14:07.361Z,21.90
2023-03-26T18:17:03.297Z,21.90
2023-03-26T18:20:07.693Z,21.80
2023-03-26T18:23:11.538Z,21.80
2023-03-26T18:26:37.886Z,21.80
2023-03-26T18:29:34.827Z,21.80
2023-03-26T18:32:34.666Z,21.80
2023-03-26T18:35:37.562Z,21.70
2023-03-26T18:38:35.921Z,21.70
2023-03-26T18:41:41.555Z,21.70
2023-03-26T18:44:38.128Z,21.70
2023-03-26T18:47:33.042Z,21.70
2023-03-26T18:50:39.812Z,21.70
2023-03-26T18:53:43.101Z,21.50
2023-03-26T18:56:42.845Z,21.50
2023-03-26T18:59:41.202Z,21.50
2023-03-26T19:02:35.821Z,21.40
2023-03-26T19:05:30.688Z,21.40
2023-03-26T19:08:26.944Z,21.40
2023-03-26T19:11:21.254Z,21.50
2023-03-26T19:14:20.983Z,21.50
2023-03-26T19:17:15.372Z,21.50
2023-03-26T19:20:20.716Z,21.50
2023-03-26T19:23:29.009Z,21.50
2023-03-26T19:26:23.455Z,21.50
2023-03-26T19:29:26.106Z,21.50
2023-03-26T19:32:33.376Z,21.50
2023-03-26T19:35:27.578Z,21.50
2023-03-26T19:38:28.291Z,21.50
2023-03-26T19:41:26.871Z,21.40
2023-03-26T19:44:21.639Z,21.40
2023-03-26T19:47:48.602Z,21.30
2023-03-26T19:51:07.241Z,21.20
2023-03-26T19:54:04.323Z,21.20
2023-03-26T19:56:58.436Z,21.10
2023-03-26T19:59:53.713Z,21.10
2023-03-26T20:02:48.297Z,21.10
2023-03-26T20:05:42.887Z,21.00
2023-03-26T20:08:37.112Z,21.10
2023-03-26T20:11:39.106Z,21.10
2023-03-26T20:14:33.737Z,21.20
2023-03-26T20:17:28.310Z,21.20
2023-03-26T20:20:26.802Z,21.30
2023-03-26T20:23:21.006Z,21.20
2023-03-26T20:26:17.838Z,21.30
2023-03-26T20:29:12.785Z,21.30
2023-03-26T20:32:11.235Z,21.30
2023-03-26T20:35:17.092Z,21.40
2023-03-26T20:38:11.515Z,21.30
2023-03-26T20:41:05.670Z,21.30
2023-03-26T20:43:59.839Z,21.30
2023-03-26T20:46:54.439Z,21.30
2023-03-26T20:49:48.610Z,21.30
2023-03-26T20:52:45.132Z,21.30
2023-03-26T20:55:45.136Z,21.30
2023-03-26T20:58:40.324Z,21.40
2023-03-26T21:01:34.749Z,21.40
2023-03-26T21:04:29.309Z,21.40
2023-03-26T21:07:23.444Z,21.50
2023-03-26T21:10:18.860Z,21.50
2023-03-26T21:13:48.086Z,21.50
2023-03-26T21:16:42.449Z,21.50
2023-03-26T21:19:36.820Z,21.50
2023-03-26T21:23:05.760Z,21.40
2023-03-26T21:26:08.290Z,21.40
2023-03-26T21:29:03.516Z,21.50
2023-03-26T21:31:58.308Z,21.50
2023-03-26T21:34:58.838Z,21.50
2023-03-26T21:37:55.398Z,21.50
2023-03-26T21:40:58.323Z,21.50
2023-03-26T21:43:53.700Z,21.50
2023-03-26T21:46:49.588Z,21.60
2023-03-26T21:49:44.258Z,21.60
2023-03-26T21:52:47.887Z,21.50
2023-03-26T21:56:03.747Z,21.50
2023-03-26T21:59:14.083Z,21.60
2023-03-26T22:02:33.570Z,21.60
2023-03-26T22:05:57.050Z,21.60
2023-03-26T22:08:51.276Z,21.60
2023-03-26T22:11:45.653Z,21.60
2023-03-26T22:14:40.298Z,21.70
2023-03-26T22:17:34.546Z,21.70
2023-03-26T22:20:29.378Z,21.70
2023-03-26T22:23:24.024Z,21.60
2023-03-26T22:26:18.113Z,21.60
2023-03-26T22:29:12.442Z,21.60
2023-03-26T22:32:06.865Z,21.60
2023-03-26T22:35:01.057Z,21.60
2023-03-26T22:38:00.841Z,21.60
2023-03-26T22:40:59.296Z,21.70
2023-03-26T22:43:56.835Z,21.70
2023-03-26T22:46:52.512Z,21.70
2023-03-26T22:49:47.013Z,21.80
2023-03-26T22:52:42.138Z,21.70
2023-03-26T22:55:36.240Z,21.80
2023-03-26T22:58:31.036Z,21.80
2023-03-26T23:01:26.212Z,21.80
2023-03-26T23:04:31.689Z,21.90
2023-03-26T23:07:26.437Z,21.90
2023-03-26T23:10:20.627Z,21.90
2023-03-26T23:13:14.732Z,21.90
2023-03-26T23:16:11.240Z,21.90
2023-03-26T23:19:06.082Z,21.90
2023-03-26T23:22:00.193Z,22.00
2023-03-26T23:24:54.616Z,22.00
2023-03-26T23:27:49.642Z,22.10
2023-03-26T23:30:48.820Z,22.10
2023-03-26T23:33:47.349Z,22.10
2023-03-26T23:36:42.945Z,22.20
2023-03-26T23:39:37.360Z,22.20
2023-03-26T23:42:31.462Z,22.20
2023-03-26T23:45:25.616Z,22.20
2023-03-26T23:48:25.805Z,22.20
2023-03-26T23:51:23.574Z,22.20
2023-03-26T23:54:17.931Z,22.30
2023-03-26T23:57:12.201Z,22.30
